Time;durP1;ratioP1;P1;durP2;ratioP2;P2;SDS_P1;SDS_P2;PMS_P1;PMS_P2;Temp;Humidity;BMP_temperature;BMP_pressure;BME280_temperature;BME280_humidity;BME280_pressure;Samples;Min_cycle;Max_cycle;Signal;HPM_P1;HPM_P2
2021/10/15 00:02:27;;;;;;;;;;;;;;;;;;;;;
2021/10/15 00:05:13;;;;;;;;;20.00;18.33;;;;;14.18;nan;101274.47;4795158;29;75233;-85
2021/10/15 00:09:02;;;;;;;;;23.00;19.67;;;;;14.15;nan;101277.09;4797161;29;45522;-86
2021/10/15 00:12:01;;;;;;;;;;;;;;;;;;;;;
2021/10/15 00:29:10;;;;;;;;;;;;;;;;;;;;;
2021/10/15 00:35:33;;;;;;;;;;;;;;;;;;;;;
2021/10/15 00:38:18;;;;;;;;;;;;;;;;;;;;;
2021/10/15 00:41:27;;;;;;;;;30.33;23.33;;;;;14.19;nan;101216.50;4757496;29;65362;-85
2021/10/15 00:44:47;;;;;;;;;;;;;;;;;;;;;
2021/10/15 00:47:50;;;;;;;;;;;;;;;;;;;;;
2021/10/15 00:54:17;;;;;;;;;31.33;30.00;;;;;14.26;nan;101270.94;4845567;29;45129;-86
2021/10/15 00:57:33;;;;;;;;;;;;;;;;;;;;;
2021/10/15 01:00:19;;;;;;;;;31.67;29.67;;;;;14.16;nan;101257.50;4848183;29;73191;-86
2021/10/15 01:02:55;;;;;;;;;27.67;26.33;;;;;13.91;nan;101244.81;4852457;29;45433;-86
2021/10/15 01:05:35;;;;;;;;;32.67;30.67;;;;;13.88;nan;101210.03;4862609;29;45454;-85
2021/10/15 01:08:18;;;;;;;;;28.67;26.00;;;;;14.07;nan;101249.41;4872174;29;45573;-86
2021/10/15 01:11:24;;;;;;;;;25.33;25.33;;;;;14.11;nan;101253.88;4871154;29;44967;-86
2021/10/15 01:13:59;;;;;;;;;21.33;21.33;;;;;13.89;nan;101254.59;4871038;29;45513;-86
2021/10/15 01:16:41;;;;;;;;;21.33;19.00;;;;;13.65;nan;101209.84;4869505;29;46057;-86
2021/10/15 01:19:11;;;;;;;;;21.33;21.33;;;;;13.62;nan;101205.38;4871346;29;45389;-86
2021/10/15 01:21:44;;;;;;;;;24.00;19.67;;;;;13.78;nan;101225.09;4872348;29;45434;-86
2021/10/15 01:24:38;;;;;;;;;22.33;19.67;;;;;13.53;nan;101202.59;4873513;29;45489;-85
2021/10/15 01:27:26;;;;;;;;;;;;;;;;;;;;;
2021/10/15 01:31:19;;;;;;;;;;;;;;;;;;;;;
2021/10/15 01:37:38;;;;;;;;;;;;;;;;;;;;;
2021/10/15 01:47:43;;;;;;;;;20.67;20.67;;;;;13.23;nan;101187.13;4825167;29;45533;-85
2021/10/15 01:50:28;;;;;;;;;;;;;;;;;;;;;
2021/10/15 01:56:12;;;;;;;;;17.67;17.00;;;;;13.09;nan;101162.94;4815123;29;46149;-85
2021/10/15 02:02:24;;;;;;;;;23.33;19.33;;;;;13.20;nan;101185.31;4804645;29;44779;-85
2021/10/15 02:05:32;;;;;;;;;;;;;;;;;;;;;
2021/10/15 02:12:06;;;;;;;;;;;;;;;;;;;;;
2021/10/15 02:14:55;;;;;;;;;21.00;20.00;;;;;13.00;nan;101188.66;4777388;29;68780;-85
2021/10/15 02:17:32;;;;;;;;;22.00;19.67;;;;;13.18;nan;101195.97;4779390;29;45651;-86
2021/10/15 02:20:07;;;;;;;;;18.67;18.33;;;;;13.06;nan;101200.31;4778885;29;45400;-86
2021/10/15 02:22:36;;;;;;;;;21.67;20.00;;;;;13.01;nan;101198.47;4778167;29;45796;-86
2021/10/15 02:25:46;;;;;;;;;22.00;20.33;;;;;13.30;nan;101205.06;4779041;29;45449;-86
2021/10/15 02:32:44;;;;;;;;;22.67;22.00;;;;;13.19;nan;101191.56;4773004;29;45580;-85
2021/10/15 02:46:45;;;;;;;;;;;;;;;;;;;;;
2021/10/15 02:49:51;;;;;;;;;;;;;;;;;;;;;
2021/10/15 02:54:06;;;;;;;;;;;;;;;;;;;;;
2021/10/15 02:56:49;;;;;;;;;;;;;;;;;;;;;
2021/10/15 03:00:11;;;;;;;;;;;;;;;;;;;;;
2021/10/15 03:02:39;;;;;;;;;24.00;23.00;;;;;12.64;nan;101154.44;4758032;29;72722;-85
2021/10/15 03:08:11;;;;;;;;;24.67;23.67;;;;;12.92;nan;101193.03;4740766;29;45480;-86
2021/10/15 03:11:14;;;;;;;;;;;;;;;;;;;;;
2021/10/15 03:14:30;;;;;;;;;;;;;;;;;;;;;
2021/10/15 03:17:19;;;;;;;;;;;;;;;;;;;;;
2021/10/15 03:20:27;;;;;;;;;;;;;;;;;;;;;
2021/10/15 03:22:55;;;;;;;;;25.00;22.00;;;;;12.55;nan;101157.88;4739785;30;73563;-85
2021/10/15 03:26:41;;;;;;;;;;;;;;;;;;;;;
2021/10/15 03:29:24;;;;;;;;;27.00;27.00;;;;;12.95;nan;101187.72;4744178;30;66567;-86
2021/10/15 03:32:38;;;;;;;;;;;;;;;;;;;;;
2021/10/15 03:35:07;;;;;;;;;32.33;28.67;;;;;12.51;nan;101137.38;4746255;30;74653;-86
2021/10/15 03:37:33;;;;;;;;;27.67;26.00;;;;;12.68;nan;101177.59;4745658;30;45480;-85
2021/10/15 03:39:59;;;;;;;;;24.00;23.00;;;;;12.75;nan;101186.59;4743803;29;45441;-85
2021/10/15 03:42:27;;;;;;;;;30.00;26.00;;;;;12.49;nan;101147.13;4744341;30;45343;-86
2021/10/15 03:45:00;;;;;;;;;34.00;32.00;;;;;12.75;nan;101189.28;4744450;29;45443;-86
2021/10/15 03:48:29;;;;;;;;;;;;;;;;;;;;;
2021/10/15 03:51:40;;;;;;;;;29.67;28.33;;;;;12.87;nan;101189.41;4705435;30;68044;-85
2021/10/15 03:54:15;;;;;;;;;35.33;33.00;;;;;12.73;nan;101148.31;4693091;30;45436;-85
2021/10/15 03:59:29;;;;;;;;;32.33;29.00;;;;;12.60;nan;101125.91;4711384;30;45527;-85
2021/10/15 04:02:26;;;;;;;;;32.00;28.67;;;;;12.65;nan;101131.34;4708846;30;45461;-85
2021/10/15 04:05:33;;;;;;;;;31.33;27.00;;;;;13.06;nan;101173.59;4714349;30;45373;-85
2021/10/15 04:08:09;;;;;;;;;28.00;24.00;;;;;12.81;nan;101142.19;4711649;30;45780;-86
2021/10/15 04:10:53;;;;;;;;;23.00;21.67;;;;;12.97;nan;101180.63;4725766;30;45440;-86
2021/10/15 04:16:53;;;;;;;;;20.00;16.00;;;;;13.01;nan;101170.91;4726552;30;45469;-86
2021/10/15 04:19:27;;;;;;;;;17.00;17.00;;;;;12.81;nan;101170.66;4727965;29;46638;-86
2021/10/15 04:22:04;;;;;;;;;20.33;20.33;;;;;12.88;nan;101179.63;4754074;29;45525;-85
2021/10/15 04:24:33;;;;;;;;;16.67;16.00;;;;;12.75;nan;101165.25;4763455;29;45691;-86
2021/10/15 04:31:16;;;;;;;;;;;;;;;;;;;;;
2021/10/15 04:34:18;;;;;;;;;;;;;;;;;;;;;
2021/10/15 04:40:43;;;;;;;;;;;;;;;;;;;;;
2021/10/15 04:44:02;;;;;;;;;;;;;;;;;;;;;
2021/10/15 04:47:10;;;;;;;;;21.33;21.00;;;;;12.56;nan;101114.34;4693055;30;71987;-85
2021/10/15 04:53:39;;;;;;;;;27.00;24.33;;;;;12.62;nan;101142.84;4692143;30;45695;-85
2021/10/15 04:56:29;;;;;;;;;27.00;24.00;;;;;12.73;nan;101126.97;4689449;30;45509;-86
2021/10/15 04:59:54;;;;;;;;;;;;;;;;;;;;;
2021/10/15 05:03:27;;;;;;;;;26.67;23.67;;;;;12.59;nan;101130.38;4690738;30;45404;-86
2021/10/15 05:11:41;;;;;;;;;31.33;30.00;;;;;12.37;nan;101133.66;4749622;29;45814;-85
2021/10/15 05:14:30;;;;;;;;;;;;;;;;;;;;;
2021/10/15 05:17:31;;;;;;;;;29.67;26.67;;;;;12.37;nan;101114.97;4760617;29;64962;-86
2021/10/15 05:20:41;;;;;;;;;32.00;31.33;;;;;12.47;nan;101116.00;4759920;29;45638;-86
2021/10/15 05:24:06;;;;;;;;;30.33;30.33;;;;;12.63;nan;101136.66;4756997;29;45022;-86
2021/10/15 05:27:27;;;;;;;;;;;;;;;;;;;;;
2021/10/15 05:30:20;;;;;;;;;33.67;28.33;;;;;12.61;nan;101133.94;4736781;30;65778;-86
2021/10/15 05:33:05;;;;;;;;;;;;;;;;;;;;;
2021/10/15 05:36:23;;;;;;;;;;;;;;;;;;;;;
2021/10/15 05:42:35;;;;;;;;;33.00;30.67;;;;;12.43;nan;101127.50;4720482;30;45628;-85
2021/10/15 05:45:07;;;;;;;;;28.00;27.67;;;;;12.58;nan;101133.00;4724802;30;46442;-86
2021/10/15 05:51:22;;;;;;;;;;;;;;;;;;;;;
2021/10/15 05:54:10;;;;;;;;;;;;;;;;;;;;;
2021/10/15 06:03:39;;;;;;;;;34.33;30.33;;;;;12.29;nan;101124.66;4723394;30;45610;-86
2021/10/15 06:17:18;;;;;;;;;;;;;;;;;;;;;
2021/10/15 06:30:18;;;;;;;;;37.67;33.67;;;;;12.21;nan;101113.88;4708474;30;45548;-88
2021/10/15 06:33:07;;;;;;;;;;;;;;;;;;;;;
2021/10/15 06:54:42;;;;;;;;;;;;;;;;;;;;;
2021/10/15 07:08:04;;;;;;;;;;;;;;;;;;;;;
2021/10/15 08:19:35;;;;;;;;;;;;;;;;;;;;;
2021/10/15 08:32:29;;;;;;;;;36.33;35.00;;;;;14.76;nan;101149.91;4678982;30;45402;-84
2021/10/15 08:35:13;;;;;;;;;43.67;35.67;;;;;15.15;nan;101185.75;4697550;30;45529;-86
2021/10/15 08:38:21;;;;;;;;;;;;;;;;;;;;;
2021/10/15 08:44:08;;;;;;;;;44.67;39.00;;;;;15.12;nan;101146.44;4885129;28;45463;-83
2021/10/15 08:54:55;;;;;;;;;;;;;;;;;;;;;
2021/10/15 09:01:54;;;;;;;;;47.67;38.67;;;;;15.68;nan;101168.84;4762125;29;45701;-83
2021/10/15 09:05:09;;;;;;;;;;;;;;;;;;;;;
2021/10/15 09:08:33;;;;;;;;;;;;;;;;;;;;;
2021/10/15 09:18:03;;;;;;;;;;;;;;;;;;;;;
2021/10/15 09:24:13;;;;;;;;;51.33;41.67;;;;;15.75;nan;101218.03;4755445;29;45488;-83
2021/10/15 09:34:26;;;;;;;;;43.00;38.00;;;;;15.69;nan;101183.13;4714533;30;45339;-85
2021/10/15 09:37:17;;;;;;;;;43.00;37.00;;;;;15.84;nan;101214.47;4713183;30;45890;-83
2021/10/15 10:36:56;;;;;;;;;;;;;;;;;;;;;
2021/10/15 12:21:48;;;;;;;;;15.00;15.00;;;;;19.39;nan;101175.06;4794699;29;45761;-78
2021/10/15 12:25:20;;;;;;;;;8.67;8.67;;;;;19.49;nan;101177.59;4793703;29;45505;-78
2021/10/15 12:28:48;;;;;;;;;14.67;14.67;;;;;19.63;nan;101163.88;4811052;29;45554;-78
2021/10/15 12:32:02;;;;;;;;;;;;;;;;;;;;;
2021/10/15 12:38:29;;;;;;;;;16.33;15.00;;;;;19.59;nan;101180.16;4673877;30;44822;-76
2021/10/15 12:44:55;;;;;;;;;;;;;;;;;;;;;
2021/10/15 12:51:35;;;;;;;;;12.00;10.00;;;;;20.03;nan;101168.63;4640044;30;45826;-78
2021/10/15 12:58:02;;;;;;;;;;;;;;;;;;;;;
2021/10/15 13:01:49;;;;;;;;;;;;;;;;;;;;;
2021/10/15 13:08:40;;;;;;;;;18.00;16.67;;;;;21.02;nan;101145.94;4660672;30;45477;-77
2021/10/15 13:15:21;;;;;;;;;7.00;7.00;;;;;21.34;nan;101167.69;4655399;30;45504;-77
2021/10/15 13:20:37;;;;;;;;;12.00;10.00;;;;;21.06;nan;101158.47;4639983;30;45622;-75
2021/10/15 13:23:09;;;;;;;;;12.33;11.00;;;;;21.09;nan;101153.00;4678770;30;44935;-76
2021/10/15 13:26:03;;;;;;;;;15.33;13.67;;;;;21.15;nan;101166.38;4687137;30;45580;-77
2021/10/15 13:29:10;;;;;;;;;16.00;16.00;;;;;21.25;nan;101164.31;4703294;30;44913;-76
2021/10/15 13:35:48;;;;;;;;;;;;;;;;;;;;;
2021/10/15 13:38:27;;;;;;;;;7.33;7.33;;;;;21.30;nan;101155.16;4665625;30;75743;-76
2021/10/15 13:43:23;;;;;;;;;7.33;7.33;;;;;21.10;nan;101163.75;4660061;30;45750;-75
2021/10/15 13:49:44;;;;;;;;;6.00;6.00;;;;;21.39;nan;101162.19;4658455;30;45622;-77
2021/10/15 13:52:46;;;;;;;;;11.67;10.33;;;;;21.09;nan;101107.00;4649650;30;45488;-74
2021/10/15 13:55:17;;;;;;;;;11.67;11.33;;;;;21.12;nan;101123.16;4664656;30;45587;-78
2021/10/15 13:58:28;;;;;;;;;;;;;;;;;;;;;
2021/10/15 14:01:06;;;;;;;;;2.33;2.33;;;;;21.30;nan;101163.28;4689261;30;75539;-77
2021/10/15 14:06:37;;;;;;;;;14.33;12.00;;;;;21.40;nan;101160.38;4717263;30;45549;-77
2021/10/15 14:09:09;;;;;;;;;13.00;13.00;;;;;21.49;nan;101165.59;4716837;30;45922;-76
2021/10/15 14:12:30;;;;;;;;;13.67;12.00;;;;;21.50;nan;101156.56;4751415;29;46382;-76
2021/10/15 14:15:00;;;;;;;;;9.67;9.67;;;;;21.34;nan;101151.47;4797866;29;45865;-77
2021/10/15 14:17:25;;;;;;;;;12.67;11.33;;;;;21.04;nan;101144.09;4828251;29;45453;-77
2021/10/15 14:19:59;;;;;;;;;12.67;12.00;;;;;21.02;nan;101144.09;4844556;29;45575;-75
2021/10/15 14:22:24;;;;;;;;;12.33;12.33;;;;;21.11;nan;101137.63;4829961;29;47867;-75
2021/10/15 14:24:52;;;;;;;;;7.33;7.33;;;;;21.31;nan;101148.84;4846401;29;45635;-75
2021/10/15 14:27:21;;;;;;;;;7.33;7.33;;;;;21.32;nan;101145.19;4850815;29;45237;-77
2021/10/15 14:29:49;;;;;;;;;9.00;9.00;;;;;21.49;nan;101150.25;4826977;29;45553;-77
2021/10/15 14:32:15;;;;;;;;;10.00;9.33;;;;;21.24;nan;101136.38;4841414;29;45409;-76
2021/10/15 14:34:44;;;;;;;;;7.33;7.33;;;;;21.26;nan;101142.66;4842386;29;45799;-77
2021/10/15 14:37:17;;;;;;;;;4.00;4.00;;;;;21.53;nan;101145.63;4824397;29;45430;-77
2021/10/15 14:39:43;;;;;;;;;9.00;7.33;;;;;21.22;nan;101138.22;4841829;29;45686;-75
2021/10/15 14:42:24;;;;;;;;;;;;;;;;;;;;;
2021/10/15 14:44:56;;;;;;;;;9.00;9.00;;;;;21.09;nan;101124.13;4845182;29;73504;-77
2021/10/15 14:47:28;;;;;;;;;9.00;9.00;;;;;21.07;nan;101152.13;4847043;29;45439;-77
2021/10/15 14:50:10;;;;;;;;;8.00;8.00;;;;;21.41;nan;101141.41;4841043;29;45431;-77
2021/10/15 14:52:44;;;;;;;;;6.33;6.33;;;;;21.36;nan;101143.31;4833658;29;46706;-77
2021/10/15 14:55:13;;;;;;;;;8.67;8.67;;;;;20.95;nan;101110.91;4827279;29;45472;-77
2021/10/15 14:58:28;;;;;;;;;9.33;8.67;;;;;21.25;nan;101134.56;4845426;29;45496;-77
2021/10/15 15:01:13;;;;;;;;;;;;;;;;;;;;;
2021/10/15 15:03:40;;;;;;;;;6.33;5.33;;;;;20.69;nan;101111.50;4834877;29;75150;-76
2021/10/15 15:06:21;;;;;;;;;2.33;2.33;;;;;21.10;nan;101139.41;4827147;29;45501;-75
2021/10/15 15:08:50;;;;;;;;;7.00;7.00;;;;;20.98;nan;101121.66;4830104;29;45489;-77
2021/10/15 15:11:18;;;;;;;;;6.67;6.00;;;;;20.64;nan;101123.34;4828311;29;45498;-77
2021/10/15 15:13:43;;;;;;;;;6.33;6.00;;;;;20.77;nan;101143.78;4844225;29;45519;-76
2021/10/15 15:16:12;;;;;;;;;7.33;5.67;;;;;20.96;nan;101153.25;4827433;29;45571;-78
2021/10/15 15:18:38;;;;;;;;;7.00;7.00;;;;;20.51;nan;101123.56;4847391;29;46120;-77
2021/10/15 15:21:03;;;;;;;;;7.33;7.00;;;;;20.37;nan;101110.34;4846106;29;45476;-77
2021/10/15 15:23:38;;;;;;;;;4.67;4.67;;;;;20.50;nan;101099.25;4837950;29;46896;-77
2021/10/15 15:26:06;;;;;;;;;6.00;6.00;;;;;20.44;nan;101111.13;4835143;29;45602;-78
2021/10/15 15:28:32;;;;;;;;;7.67;6.33;;;;;20.30;nan;101099.69;4850654;29;45490;-75
2021/10/15 15:31:04;;;;;;;;;4.00;4.00;;;;;20.26;nan;101097.97;4842389;29;45430;-76
2021/10/15 15:33:30;;;;;;;;;6.00;4.33;;;;;20.30;nan;101124.91;4846461;29;46908;-76
2021/10/15 15:35:58;;;;;;;;;7.67;7.67;;;;;20.43;nan;101143.56;4833045;29;45511;-77
2021/10/15 15:38:24;;;;;;;;;6.00;6.00;;;;;20.27;nan;101153.78;4848868;29;45439;-77
2021/10/15 15:40:49;;;;;;;;;5.00;5.00;;;;;20.21;nan;101162.88;4831556;29;44837;-77
2021/10/15 15:43:15;;;;;;;;;7.33;7.33;;;;;20.16;nan;101145.91;4842961;29;48234;-77
2021/10/15 15:45:46;;;;;;;;;8.33;8.33;;;;;20.14;nan;101139.63;4846153;29;45662;-77
2021/10/15 15:48:11;;;;;;;;;7.33;7.33;;;;;20.26;nan;101157.38;4847597;29;45975;-76
2021/10/15 15:50:41;;;;;;;;;5.00;3.67;;;;;20.30;nan;101151.00;4847883;29;45483;-77
2021/10/15 15:53:08;;;;;;;;;7.67;7.00;;;;;20.31;nan;101160.91;4831787;29;45529;-77
2021/10/15 15:55:53;;;;;;;;;5.00;5.00;;;;;20.19;nan;101137.72;4851381;29;45880;-82
2021/10/15 15:59:09;;;;;;;;;;;;;;;;;;;;;
2021/10/15 16:01:47;;;;;;;;;6.00;6.00;;;;;19.81;nan;101131.22;4853291;29;66185;-80
2021/10/15 16:04:18;;;;;;;;;8.00;8.00;;;;;19.76;nan;101115.13;4850131;29;47299;-81
2021/10/15 16:13:29;;;;;;;;;5.33;5.33;;;;;20.02;nan;101167.75;4837875;29;44765;-81
2021/10/15 16:16:00;;;;;;;;;7.33;6.67;;;;;19.66;nan;101112.59;4816069;29;47158;-81
2021/10/15 16:18:57;;;;;;;;;7.00;6.00;;;;;19.74;nan;101114.25;4819421;29;45419;-81
2021/10/15 16:21:40;;;;;;;;;;;;;;;;;;;;;
2021/10/15 16:24:22;;;;;;;;;6.33;5.33;;;;;19.72;nan;101129.59;4814976;29;65318;-81
2021/10/15 16:26:48;;;;;;;;;6.33;6.33;;;;;19.44;nan;101130.94;4816664;29;47673;-81
2021/10/15 16:29:39;;;;;;;;;9.67;6.67;;;;;19.56;nan;101138.81;4854240;29;44794;-81
2021/10/15 16:32:25;;;;;;;;;;;;;;;;;;;;;
2021/10/15 16:35:47;;;;;;;;;9.67;9.67;;;;;19.42;nan;101141.75;4835653;29;66477;-82
2021/10/15 16:38:55;;;;;;;;;;;;;;;;;;;;;
2021/10/15 16:44:25;;;;;;;;;;;;;;;;;;;;;
2021/10/15 16:46:50;;;;;;;;;9.67;8.00;;;;;18.94;nan;101136.19;4845219;29;65850;-81
2021/10/15 16:49:41;;;;;;;;;7.33;7.33;;;;;19.18;nan;101145.72;4817920;29;46787;-81
2021/10/15 16:54:03;;;;;;;;;;;;;;;;;;;;;
2021/10/15 16:55:54;;;;;;;;;9.67;9.67;;;;;18.89;nan;101152.44;4762636;29;45522;-81
2021/10/15 16:58:27;;;;;;;;;9.00;9.00;;;;;18.96;nan;101143.31;4766343;29;45544;-81
2021/10/15 17:01:59;;;;;;;;;11.67;9.33;;;;;19.06;nan;101157.56;4756243;29;45708;-81
2021/10/15 17:04:31;;;;;;;;;8.33;8.33;;;;;19.11;nan;101179.09;4755185;29;45348;-81
2021/10/15 17:07:15;;;;;;;;;;;;;;;;;;;;;
2021/10/15 17:10:00;;;;;;;;;;;;;;;;;;;;;
2021/10/15 17:13:16;;;;;;;;;;;;;;;;;;;;;
2021/10/15 17:15:39;;;;;;;;;10.67;9.00;;;;;19.04;nan;101209.72;4760194;29;45471;-82
2021/10/15 17:18:28;;;;;;;;;12.67;12.00;;;;;19.23;nan;101203.19;4744796;29;45452;-81
2021/10/15 17:21:01;;;;;;;;;13.67;11.33;;;;;18.81;nan;101172.31;4743544;29;45642;-81
2021/10/15 17:26:50;;;;;;;;;12.67;12.00;;;;;18.90;nan;101166.78;4759152;29;45455;-81
2021/10/15 17:29:19;;;;;;;;;14.33;14.00;;;;;19.23;nan;101219.34;4759871;29;45481;-81
2021/10/15 17:31:45;;;;;;;;;12.67;12.33;;;;;18.82;nan;101180.34;4796756;29;45435;-81
2021/10/15 17:34:11;;;;;;;;;17.33;14.33;;;;;18.99;nan;101209.78;4853252;29;45512;-81
2021/10/15 17:36:39;;;;;;;;;17.33;13.67;;;;;19.07;nan;101215.09;4835232;29;45439;-81
2021/10/15 17:39:43;;;;;;;;;;;;;;;;;;;;;
2021/10/15 17:42:09;;;;;;;;;12.00;12.00;;;;;18.55;nan;101177.06;4830437;29;65619;-81
2021/10/15 17:44:45;;;;;;;;;19.00;17.67;;;;;18.78;nan;101197.44;4816064;29;46985;-81
2021/10/15 17:47:13;;;;;;;;;18.67;17.67;;;;;18.50;nan;101168.16;4833171;29;45480;-81
2021/10/15 17:49:38;;;;;;;;;24.00;23.00;;;;;18.42;nan;101190.69;4817176;29;44829;-82
2021/10/15 17:52:17;;;;;;;;;34.33;31.33;;;;;18.69;nan;101222.69;4832735;29;45470;-81
2021/10/15 17:55:33;;;;;;;;;;;;;;;;;;;;;
2021/10/15 17:58:50;;;;;;;;;;;;;;;;;;;;;
2021/10/15 18:01:05;;;;;;;;;35.33;32.33;;;;;18.30;nan;101207.84;4836521;29;45327;-81
2021/10/15 18:03:33;;;;;;;;;42.33;36.00;;;;;18.47;nan;101222.06;4819294;29;45432;-81
2021/10/15 18:05:59;;;;;;;;;33.67;32.33;;;;;18.30;nan;101232.09;4818708;29;45468;-82
2021/10/15 18:08:28;;;;;;;;;38.33;30.67;;;;;18.37;nan;101215.88;4817867;29;45489;-81
2021/10/15 18:10:57;;;;;;;;;30.33;26.00;;;;;18.25;nan;101223.19;4834453;29;45450;-81
2021/10/15 18:13:24;;;;;;;;;30.00;24.00;;;;;18.09;nan;101208.97;4832608;29;44923;-81
2021/10/15 18:16:08;;;;;;;;;;;;;;;;;;;;;
2021/10/15 18:18:57;;;;;;;;;29.67;28.00;;;;;18.12;nan;101225.13;4832108;29;71727;-82
2021/10/15 18:21:38;;;;;;;;;;;;;;;;;;;;;
2021/10/15 18:24:18;;;;;;;;;48.00;39.00;;;;;18.09;nan;101199.09;4831619;29;64219;-82
2021/10/15 18:26:58;;;;;;;;;44.00;36.67;;;;;18.11;nan;101215.25;4813556;29;46118;-82
2021/10/15 18:29:40;;;;;;;;;;;;;;;;;;;;;
2021/10/15 18:32:15;;;;;;;;;45.00;39.00;;;;;17.77;nan;101200.28;4831247;29;67912;-82
2021/10/15 18:35:12;;;;;;;;;;;;;;;;;;;;;
2021/10/15 18:37:50;;;;;;;;;;;;;;;;;;;;;
2021/10/15 18:40:21;;;;;;;;;46.00;40.00;;;;;17.75;nan;101210.16;4830993;29;72756;-82
2021/10/15 18:42:53;;;;;;;;;45.33;38.67;;;;;17.78;nan;101228.94;4813983;29;44736;-82
2021/10/15 18:45:25;;;;;;;;;43.67;38.00;;;;;17.84;nan;101230.72;4813936;29;44843;-82
2021/10/15 18:48:37;;;;;;;;;;;;;;;;;;;;;
2021/10/15 18:52:04;;;;;;;;;;;;;;;;;;;;;
2021/10/15 18:54:48;;;;;;;;;;;;;;;;;;;;;
2021/10/15 18:57:40;;;;;;;;;;;;;;;;;;;;;
2021/10/15 19:00:10;;;;;;;;;27.67;27.67;;;;;17.23;nan;101209.59;4830151;29;74327;-82
2021/10/15 19:02:35;;;;;;;;;26.33;26.33;;;;;17.29;nan;101234.66;4813894;29;44959;-82
2021/10/15 19:05:01;;;;;;;;;26.67;25.00;;;;;17.49;nan;101277.56;4814824;29;45378;-82
2021/10/15 19:07:27;;;;;;;;;22.67;22.67;;;;;17.35;nan;101260.59;4815374;29;45920;-82
2021/10/15 19:09:52;;;;;;;;;17.00;17.00;;;;;17.35;nan;101253.44;4814558;29;45258;-82
2021/10/15 19:12:18;;;;;;;;;19.67;19.67;;;;;17.24;nan;101235.59;4816469;29;44921;-81
2021/10/15 19:14:46;;;;;;;;;24.33;19.67;;;;;17.32;nan;101228.38;4831785;29;45343;-81
2021/10/15 19:17:24;;;;;;;;;;;;;;;;;;;;;
2021/10/15 19:19:58;;;;;;;;;24.00;22.00;;;;;17.13;nan;101249.97;4829448;29;74346;-81
2021/10/15 19:22:30;;;;;;;;;23.33;20.33;;;;;17.16;nan;101236.50;4829864;29;45496;-81
2021/10/15 19:25:07;;;;;;;;;19.33;18.00;;;;;17.18;nan;101228.44;4814848;29;45395;-81
2021/10/15 19:27:37;;;;;;;;;21.67;20.00;;;;;17.04;nan;101236.56;4828449;29;45609;-81
2021/10/15 19:30:26;;;;;;;;;;;;;;;;;;;;;
2021/10/15 19:32:57;;;;;;;;;18.00;17.00;;;;;17.18;nan;101247.25;4810550;29;71108;-81
2021/10/15 19:35:45;;;;;;;;;19.67;19.00;;;;;17.36;nan;101271.34;4809741;29;45481;-81
2021/10/15 19:44:22;;;;;;;;;18.33;18.33;;;;;17.39;nan;101281.19;4828906;29;45407;-81
2021/10/15 19:46:52;;;;;;;;;20.33;20.33;;;;;17.19;nan;101292.94;4827546;29;45574;-82
2021/10/15 19:49:20;;;;;;;;;21.00;21.00;;;;;17.14;nan;101254.44;4813565;29;45502;-81
2021/10/15 19:51:46;;;;;;;;;24.00;22.33;;;;;17.25;nan;101302.78;4829978;29;46899;-81
2021/10/15 19:58:04;;;;;;;;;20.67;16.67;;;;;17.49;nan;101312.53;4827088;29;45406;-81
2021/10/15 20:01:20;;;;;;;;;;;;;;;;;;;;;
2021/10/15 20:03:51;;;;;;;;;21.00;20.00;;;;;17.30;nan;101282.13;4827419;29;73986;-82
2021/10/15 20:06:39;;;;;;;;;22.33;20.00;;;;;17.21;nan;101268.75;4811950;29;45578;-82
2021/10/15 20:09:08;;;;;;;;;24.00;23.00;;;;;17.24;nan;101263.34;4849068;29;45595;-82
2021/10/15 20:11:46;;;;;;;;;19.00;17.67;;;;;17.21;nan;101263.38;4851370;29;45710;-82
2021/10/15 20:14:12;;;;;;;;;20.33;19.67;;;;;17.02;nan;101262.56;4851040;29;46353;-82
2021/10/15 20:16:40;;;;;;;;;22.33;18.67;;;;;17.17;nan;101270.56;4849760;29;45445;-82
2021/10/15 20:19:24;;;;;;;;;;;;;;;;;;;;;
2021/10/15 20:22:03;;;;;;;;;24.33;20.33;;;;;17.18;nan;101263.38;4834502;29;64350;-82
2021/10/15 20:24:28;;;;;;;;;23.33;22.00;;;;;17.12;nan;101299.25;4833908;29;45572;-82
2021/10/15 20:27:04;;;;;;;;;;;;;;;;;;;;;
2021/10/15 20:29:33;;;;;;;;;18.67;18.67;;;;;17.22;nan;101300.09;4833562;29;70501;-81
2021/10/15 20:32:04;;;;;;;;;21.33;18.67;;;;;17.17;nan;101280.44;4834134;29;45726;-82
2021/10/15 20:34:36;;;;;;;;;19.00;19.00;;;;;16.98;nan;101269.72;4817073;29;47129;-82
2021/10/15 20:37:14;;;;;;;;;19.67;19.67;;;;;16.90;nan;101266.19;4846960;29;45338;-81
2021/10/15 20:39:48;;;;;;;;;20.67;20.67;;;;;16.96;nan;101289.44;4867763;23;47348;-82
2021/10/15 20:42:22;;;;;;;;;21.00;21.00;;;;;16.98;nan;101258.97;4850256;29;45779;-81
2021/10/15 20:44:49;;;;;;;;;18.00;18.00;;;;;17.05;nan;101307.31;4867158;29;46886;-81
2021/10/15 20:47:23;;;;;;;;;23.33;20.33;;;;;17.34;nan;101320.66;4867027;29;45433;-81
2021/10/15 20:50:16;;;;;;;;;;;;;;;;;;;;;
2021/10/15 20:52:47;;;;;;;;;21.67;21.67;;;;;17.30;nan;101305.44;4851695;29;65713;-81
2021/10/15 20:55:13;;;;;;;;;19.67;19.67;;;;;17.15;nan;101314.47;4851560;29;45802;-81
2021/10/15 20:57:39;;;;;;;;;17.00;17.00;;;;;17.15;nan;101326.13;4865264;29;45739;-81
2021/10/15 21:00:06;;;;;;;;;23.33;21.67;;;;;17.13;nan;101313.59;4851312;29;45512;-81
2021/10/15 21:02:33;;;;;;;;;23.33;22.00;;;;;17.14;nan;101328.81;4851039;29;45358;-82
2021/10/15 21:04:58;;;;;;;;;24.00;21.00;;;;;16.86;nan;101301.13;4867810;29;47315;-81
2021/10/15 21:07:32;;;;;;;;;24.00;24.00;;;;;17.02;nan;101335.09;4852175;29;45455;-81
2021/10/15 21:10:06;;;;;;;;;24.00;22.33;;;;;16.90;nan;101314.53;4851352;29;45478;-81
2021/10/15 21:12:42;;;;;;;;;17.33;17.33;;;;;17.03;nan;101306.44;4864635;29;45431;-81
2021/10/15 21:15:19;;;;;;;;;21.67;21.67;;;;;16.78;nan;101303.78;4847978;29;45597;-81
2021/10/15 21:17:53;;;;;;;;;23.67;22.67;;;;;16.92;nan;101298.41;4849039;29;44855;-81
2021/10/15 21:20:29;;;;;;;;;21.00;21.00;;;;;16.88;nan;101293.97;4850780;29;45431;-80
2021/10/15 21:22:55;;;;;;;;;26.33;23.67;;;;;16.87;nan;101311.00;4852239;29;45547;-81
2021/10/15 21:28:59;;;;;;;;;;;;;;;;;;;;;
2021/10/15 21:31:31;;;;;;;;;23.67;19.00;;;;;16.99;nan;101337.81;4852636;29;68006;-82
2021/10/15 21:34:06;;;;;;;;;17.00;17.00;;;;;16.75;nan;101304.72;4867109;29;45361;-81
2021/10/15 21:37:13;;;;;;;;;;;;;;;;;;;;;
2021/10/15 21:39:50;;;;;;;;;17.33;17.33;;;;;16.85;nan;101313.69;4857422;29;72014;-81
2021/10/15 21:42:26;;;;;;;;;24.00;18.00;;;;;16.92;nan;101347.66;4856090;29;45432;-81
2021/10/15 21:48:16;;;;;;;;;22.33;21.67;;;;;16.89;nan;101333.38;4872060;29;45625;-82
2021/10/15 21:51:03;;;;;;;;;;;;;;;;;;;;;
2021/10/15 21:53:32;;;;;;;;;23.33;21.00;;;;;17.07;nan;101337.81;4871278;29;68718;-82
2021/10/15 21:56:02;;;;;;;;;23.33;20.67;;;;;16.95;nan;101331.56;4870721;29;45505;-82
2021/10/15 21:58:29;;;;;;;;;22.33;22.33;;;;;16.70;nan;101301.13;4853621;29;48139;-82
2021/10/15 22:01:01;;;;;;;;;18.00;16.00;;;;;16.76;nan;101303.81;4851090;29;44865;-82
2021/10/15 22:03:33;;;;;;;;;22.00;21.00;;;;;16.68;nan;101300.22;4853373;29;45505;-82
2021/10/15 22:06:22;;;;;;;;;19.33;17.00;;;;;16.48;nan;101302.97;4856251;28;45420;-82
2021/10/15 22:09:11;;;;;;;;;;;;;;;;;;;;;
2021/10/15 22:12:33;;;;;;;;;;;;;;;;;;;;;
2021/10/15 22:15:43;;;;;;;;;24.00;19.67;;;;;16.53;nan;101301.16;4873307;28;68793;-82
2021/10/15 22:18:51;;;;;;;;;16.33;16.33;;;;;16.79;nan;101359.31;4872474;28;45004;-82
2021/10/15 22:21:27;;;;;;;;;16.67;14.33;;;;;16.48;nan;101361.13;4864554;29;45530;-82
2021/10/15 22:27:14;;;;;;;;;16.67;16.33;;;;;16.41;nan;101360.25;4870482;28;45389;-82
2021/10/15 22:29:45;;;;;;;;;19.00;16.00;;;;;16.51;nan;101345.03;4851890;29;44992;-82
2021/10/15 22:32:21;;;;;;;;;19.33;19.33;;;;;16.40;nan;101356.69;4866720;29;45524;-82
2021/10/15 22:43:26;;;;;;;;;;;;;;;;;;;;;
2021/10/15 22:45:41;;;;;;;;;16.33;16.00;;;;;16.08;nan;101332.50;4846500;29;45559;-82
2021/10/15 22:48:16;;;;;;;;;21.00;19.33;;;;;16.47;nan;101367.41;4850995;29;45557;-82
2021/10/15 22:50:47;;;;;;;;;19.33;16.67;;;;;16.35;nan;101365.63;4835790;29;45588;-82
2021/10/15 22:53:12;;;;;;;;;18.33;17.00;;;;;16.07;nan;101345.91;4851074;29;45395;-81
2021/10/15 22:55:40;;;;;;;;;16.67;13.67;;;;;16.18;nan;101354.88;4846889;29;45636;-82
2021/10/15 22:58:07;;;;;;;;;14.00;14.00;;;;;16.24;nan;101364.69;4831984;29;45877;-81
2021/10/15 23:00:33;;;;;;;;;20.33;15.67;;;;;16.19;nan;101372.75;4847426;29;45456;-82
2021/10/15 23:03:09;;;;;;;;;16.00;15.00;;;;;16.04;nan;101330.72;4847863;29;45632;-82
2021/10/15 23:05:35;;;;;;;;;15.67;15.00;;;;;15.83;nan;101330.69;4830942;29;45670;-82
2021/10/15 23:08:02;;;;;;;;;22.00;15.00;;;;;15.77;nan;101315.47;4831632;29;45436;-82
2021/10/15 23:10:28;;;;;;;;;12.00;10.67;;;;;15.72;nan;101312.78;4832704;29;45613;-82